createdAt,value
2018-12-19T00:00:58.630Z,-0.20
2018-12-19T00:03:34.462Z,-0.10
2018-12-19T00:06:09.933Z,-0.10
2018-12-19T00:08:46.088Z,0.00
2018-12-19T00:11:23.791Z,0.00
2018-12-19T00:13:58.762Z,0.00
2018-12-19T00:16:32.099Z,-0.10
2018-12-19T00:19:05.405Z,-0.10
2018-12-19T00:21:41.534Z,-0.10
2018-12-19T00:24:15.593Z,-0.20
2018-12-19T00:26:50.411Z,-0.30
2018-12-19T00:29:30.111Z,-0.20
2018-12-19T00:32:11.593Z,-0.30
2018-12-19T00:34:46.878Z,-0.30
2018-12-19T00:37:26.315Z,-0.40
2018-12-19T00:39:59.339Z,-0.40
2018-12-19T00:42:34.841Z,-0.30
2018-12-19T00:45:08.756Z,-0.40
2018-12-19T00:47:48.296Z,-0.30
2018-12-19T00:50:19.917Z,-0.30
2018-12-19T00:52:53.040Z,-0.40
2018-12-19T00:55:26.615Z,-0.40
2018-12-19T00:58:00.797Z,-0.40
2018-12-19T01:00:33.934Z,-0.40
2018-12-19T01:03:07.175Z,-0.40
2018-12-19T01:05:38.791Z,-0.50
2018-12-19T01:08:10.268Z,-0.50
2018-12-19T01:10:43.856Z,-0.40
2018-12-19T01:13:17.286Z,-0.40
2018-12-19T01:15:48.648Z,-0.40
2018-12-19T01:18:20.355Z,-0.40
2018-12-19T01:20:53.578Z,-0.50
2018-12-19T01:23:31.828Z,-0.50
2018-12-19T01:26:05.111Z,-0.60
2018-12-19T01:28:40.679Z,-0.50
2018-12-19T01:31:16.232Z,-0.60
2018-12-19T01:33:50.346Z,-0.50
2018-12-19T01:36:25.789Z,-0.50
2018-12-19T01:38:59.918Z,-0.50
2018-12-19T01:41:35.387Z,-0.40
2018-12-19T01:44:13.810Z,-0.40
2018-12-19T01:46:49.105Z,-0.40
2018-12-19T01:49:27.350Z,-0.30
2018-12-19T01:52:00.479Z,-0.30
2018-12-19T01:54:36.053Z,-0.30
2018-12-19T01:57:14.353Z,-0.20
2018-12-19T01:59:52.569Z,-0.20
2018-12-19T02:02:32.362Z,-0.20
2018-12-19T02:05:07.693Z,-0.30
2018-12-19T02:07:47.710Z,-0.30
2018-12-19T02:10:21.566Z,-0.40
2018-12-19T02:13:01.263Z,-0.50
2018-12-19T02:15:35.151Z,-0.50
2018-12-19T02:18:14.810Z,-0.60
2018-12-19T02:20:54.355Z,-0.60
2018-12-19T02:23:26.378Z,-0.60
2018-12-19T02:25:57.941Z,-0.60
2018-12-19T02:28:31.663Z,-0.50
2018-12-19T02:31:07.467Z,-0.50
2018-12-19T02:33:40.528Z,-0.50
2018-12-19T02:36:15.934Z,-0.60
2018-12-19T02:38:55.416Z,-0.60
2018-12-19T02:41:31.684Z,-0.60
2018-12-19T02:44:07.744Z,-0.50
2018-12-19T02:46:47.091Z,-0.50
2018-12-19T02:49:27.283Z,-0.50
2018-12-19T02:52:03.553Z,-0.50
2018-12-19T02:54:36.934Z,-0.50
2018-12-19T02:57:16.383Z,-0.50
2018-12-19T02:59:52.624Z,-0.40
2018-12-19T03:02:32.035Z,-0.40
2018-12-19T03:05:06.171Z,-0.40
2018-12-19T03:07:44.427Z,-0.30
2018-12-19T03:10:20.760Z,-0.20
2018-12-19T03:12:56.263Z,-0.10
2018-12-19T03:15:30.431Z,0.00
2018-12-19T03:18:08.578Z,0.10
2018-12-19T03:20:44.090Z,0.10
2018-12-19T03:23:23.661Z,0.20
2018-12-19T03:25:59.910Z,0.20
2018-12-19T03:28:38.150Z,0.20
2018-12-19T03:31:19.151Z,0.30
2018-12-19T03:33:58.573Z,0.30
2018-12-19T03:36:29.867Z,0.40
2018-12-19T03:39:06.640Z,0.50
2018-12-19T03:41:39.944Z,0.50
2018-12-19T03:44:15.247Z,0.50
2018-12-19T03:46:55.033Z,0.50
2018-12-19T03:49:29.100Z,0.60
2018-12-19T03:52:08.433Z,0.60
2018-12-19T03:54:44.783Z,0.70
2018-12-19T03:57:24.378Z,0.80
2018-12-19T04:00:05.121Z,0.80
2018-12-19T04:02:44.710Z,0.80
2018-12-19T04:05:17.928Z,0.90
2018-12-19T04:07:49.555Z,0.90
2018-12-19T04:10:22.966Z,0.90
2018-12-19T04:13:02.690Z,0.90
2018-12-19T04:15:36.595Z,1.00
2018-12-19T04:18:09.936Z,0.90
2018-12-19T04:20:51.923Z,1.00
2018-12-19T04:23:23.665Z,1.00
2018-12-19T04:25:57.100Z,1.00
2018-12-19T04:28:32.858Z,1.10
2018-12-19T04:31:14.562Z,1.10
2018-12-19T04:33:50.594Z,1.10
2018-12-19T04:36:21.565Z,1.20
2018-12-19T04:38:55.202Z,1.20
2018-12-19T04:41:30.822Z,1.20
2018-12-19T04:44:04.745Z,1.30
2018-12-19T04:46:42.245Z,1.30
2018-12-19T04:49:14.215Z,1.40
2018-12-19T04:51:45.345Z,1.40
2018-12-19T04:54:21.929Z,1.40
2018-12-19T04:56:55.086Z,1.40
2018-12-19T04:59:30.669Z,1.50
2018-12-19T05:02:10.020Z,1.50
2018-12-19T05:04:43.931Z,1.60
2018-12-19T05:07:19.246Z,1.60
2018-12-19T05:09:59.011Z,1.70
2018-12-19T05:12:31.035Z,1.70
2018-12-19T05:15:05.626Z,1.70
2018-12-19T05:17:46.690Z,1.80
2018-12-19T05:20:17.820Z,1.80
2018-12-19T05:22:53.441Z,1.90
2018-12-19T05:25:27.357Z,1.90
2018-12-19T05:28:00.589Z,1.90
2018-12-19T05:30:42.418Z,1.90
2018-12-19T05:33:22.446Z,1.90
2018-12-19T05:35:56.430Z,1.90
2018-12-19T05:38:36.221Z,1.90
2018-12-19T05:41:16.370Z,1.90
2018-12-19T05:43:52.570Z,1.90
2018-12-19T05:46:25.943Z,1.90
2018-12-19T05:48:59.450Z,1.90
2018-12-19T05:51:35.757Z,1.90
2018-12-19T05:54:07.952Z,2.00
2018-12-19T05:56:42.127Z,1.90
2018-12-19T05:59:21.735Z,1.90
2018-12-19T06:01:57.255Z,1.90
2018-12-19T06:04:29.206Z,2.00
2018-12-19T06:07:02.724Z,2.00
2018-12-19T06:09:44.594Z,2.00
2018-12-19T06:12:24.446Z,2.00
2018-12-19T06:14:59.374Z,2.10
2018-12-19T06:17:39.313Z,2.00
2018-12-19T06:20:14.732Z,1.90
2018-12-19T06:22:50.751Z,1.90
2018-12-19T06:25:23.791Z,1.90
2018-12-19T06:28:03.703Z,1.80
2018-12-19T06:30:43.176Z,1.70
2018-12-19T06:33:23.293Z,1.70
2018-12-19T06:35:55.201Z,1.60
2018-12-19T06:38:28.586Z,1.50
2018-12-19T06:41:04.009Z,1.40
2018-12-19T06:43:43.819Z,1.40
2018-12-19T06:46:17.464Z,1.30
2018-12-19T06:48:51.838Z,1.20
2018-12-19T06:51:31.778Z,1.20
2018-12-19T06:54:11.990Z,1.20
2018-12-19T06:56:43.323Z,1.20
2018-12-19T06:59:16.634Z,1.20
2018-12-19T07:01:56.231Z,1.20
2018-12-19T07:04:30.279Z,1.20
2018-12-19T07:07:10.045Z,1.30
2018-12-19T07:09:48.262Z,1.30
2018-12-19T07:12:20.141Z,1.40
2018-12-19T07:14:56.225Z,1.50
2018-12-19T07:17:30.231Z,1.50
2018-12-19T07:20:06.138Z,1.50
2018-12-19T07:22:38.146Z,1.50
2018-12-19T07:25:11.672Z,1.70
2018-12-19T07:27:51.533Z,1.70
2018-12-19T07:30:29.795Z,1.70
2018-12-19T07:33:01.655Z,1.80
2018-12-19T07:35:37.212Z,1.80
2018-12-19T07:38:16.600Z,1.90
2018-12-19T07:40:55.255Z,1.90
2018-12-19T07:43:33.241Z,2.00
2018-12-19T07:46:08.737Z,2.00
2018-12-19T07:48:40.928Z,2.10
2018-12-19T07:51:19.093Z,2.10
2018-12-19T07:53:51.138Z,2.10
2018-12-19T07:56:24.584Z,2.10
2018-12-19T07:58:58.771Z,2.30
2018-12-19T08:01:38.509Z,2.40
2018-12-19T08:04:09.733Z,2.40
2018-12-19T08:06:43.162Z,2.50
2018-12-19T08:09:20.725Z,2.60
2018-12-19T08:11:54.546Z,2.70
2018-12-19T08:14:28.285Z,2.70
2018-12-19T08:17:02.185Z,2.70
2018-12-19T08:19:35.563Z,2.80
2018-12-19T08:22:08.881Z,2.90
2018-12-19T08:24:42.106Z,3.00
2018-12-19T08:27:16.212Z,3.00
2018-12-19T08:29:56.754Z,3.10
2018-12-19T08:32:39.124Z,3.20
2018-12-19T08:35:11.752Z,3.30
2018-12-19T08:37:45.126Z,3.30
2018-12-19T08:40:18.473Z,3.40
2018-12-19T08:42:51.857Z,3.50
2018-12-19T08:45:26.040Z,3.60
2018-12-19T08:47:59.365Z,3.60
2018-12-19T08:50:39.405Z,3.70
2018-12-19T08:53:19.238Z,3.80
2018-12-19T08:55:53.284Z,3.80
2018-12-19T08:58:27.068Z,3.90
2018-12-19T09:01:01.313Z,3.90
2018-12-19T09:03:34.401Z,3.90
2018-12-19T09:06:08.125Z,4.00
2018-12-19T09:08:42.201Z,4.10
2018-12-19T09:11:22.135Z,4.10
2018-12-19T09:13:56.032Z,4.20
2018-12-19T09:16:30.334Z,4.20
2018-12-19T09:19:04.116Z,4.30
2018-12-19T09:21:37.301Z,4.30
2018-12-19T09:24:13.101Z,4.40
2018-12-19T09:26:53.232Z,4.40
2018-12-19T09:29:26.776Z,4.50
2018-12-19T09:31:57.851Z,4.60
2018-12-19T09:34:31.830Z,4.60
2018-12-19T09:37:06.236Z,4.70
2018-12-19T09:39:40.549Z,4.70
2018-12-19T09:42:14.963Z,4.80
2018-12-19T09:44:48.660Z,4.80
2018-12-19T09:47:28.106Z,4.80
2018-12-19T09:50:04.122Z,4.80
2018-12-19T09:52:37.652Z,4.90
2018-12-19T09:55:10.914Z,4.90
2018-12-19T09:57:44.545Z,4.90
2018-12-19T10:00:23.430Z,4.80
2018-12-19T10:02:57.237Z,4.80
2018-12-19T10:05:31.268Z,4.80
2018-12-19T10:08:10.564Z,4.70
2018-12-19T10:10:43.660Z,4.70
2018-12-19T10:23:32.773Z,4.80
2018-12-19T10:26:12.748Z,4.80
2018-12-19T10:28:46.097Z,4.90
2018-12-19T10:31:21.529Z,4.90
2018-12-19T10:33:55.022Z,5.00
2018-12-19T10:36:34.181Z,5.00
2018-12-19T10:39:17.677Z,5.00
2018-12-19T10:41:51.533Z,5.10
2018-12-19T10:44:24.985Z,5.00
2018-12-19T10:46:58.023Z,5.00
2018-12-19T10:49:31.258Z,5.10
2018-12-19T10:52:05.791Z,5.10
2018-12-19T10:54:39.321Z,5.10
2018-12-19T10:57:17.387Z,5.10
2018-12-19T10:59:55.765Z,5.20
2018-12-19T11:02:29.780Z,5.20
2018-12-19T11:05:03.546Z,5.20
2018-12-19T11:07:37.819Z,5.30
2018-12-19T11:10:11.683Z,5.40
2018-12-19T11:12:45.736Z,5.40
2018-12-19T11:15:19.557Z,5.40
2018-12-19T11:17:50.785Z,5.40
2018-12-19T11:20:24.103Z,5.50
2018-12-19T11:22:57.246Z,5.50
2018-12-19T11:25:30.874Z,5.50
2018-12-19T11:35:42.467Z,5.40
2018-12-19T11:38:18.081Z,5.40
2018-12-19T11:40:51.884Z,5.50
2018-12-19T11:43:25.624Z,5.40
2018-12-19T11:45:59.125Z,5.50
2018-12-19T11:48:33.001Z,5.40
2018-12-19T11:51:08.682Z,5.40
2018-12-19T11:53:44.205Z,5.40
2018-12-19T11:56:19.789Z,5.40
2018-12-19T11:58:53.265Z,5.50
2018-12-19T12:01:32.853Z,5.50
2018-12-19T12:04:06.939Z,5.40
2018-12-19T12:06:42.616Z,5.40
2018-12-19T12:09:22.928Z,5.30
2018-12-19T12:11:55.055Z,5.30
2018-12-19T12:14:28.914Z,5.30
2018-12-19T12:17:02.512Z,5.30
2018-12-19T12:19:36.824Z,5.30
2018-12-19T12:22:11.065Z,5.30
2018-12-19T12:24:54.320Z,5.30
2018-12-19T12:27:28.134Z,5.30
2018-12-19T12:30:10.731Z,5.30
2018-12-19T12:32:50.448Z,5.40
2018-12-19T12:35:24.085Z,5.40
2018-12-19T12:37:57.700Z,5.30
2018-12-19T12:40:37.953Z,5.40
2018-12-19T12:43:12.251Z,5.40
2018-12-19T12:45:46.196Z,5.40
2018-12-19T12:48:19.664Z,5.40
2018-12-19T12:50:58.883Z,5.40
2018-12-19T12:53:38.949Z,5.40
2018-12-19T12:56:12.729Z,5.50
2018-12-19T12:58:46.142Z,5.50
2018-12-19T13:01:24.762Z,5.50
2018-12-19T13:04:03.046Z,5.50
2018-12-19T13:06:38.638Z,5.50
2018-12-19T13:09:12.575Z,5.50
2018-12-19T13:11:50.982Z,5.50
2018-12-19T13:14:25.476Z,5.50
2018-12-19T13:16:59.158Z,5.40
2018-12-19T13:19:33.209Z,5.40
2018-12-19T13:22:12.866Z,5.40
2018-12-19T13:24:47.026Z,5.40
2018-12-19T13:27:23.136Z,5.40
2018-12-19T13:29:56.409Z,5.30
2018-12-19T13:32:30.689Z,5.30
2018-12-19T13:35:06.980Z,5.20
2018-12-19T13:37:41.255Z,5.20
2018-12-19T13:40:15.347Z,5.10
2018-12-19T13:42:57.951Z,5.10
2018-12-19T13:45:32.492Z,5.10
2018-12-19T13:48:06.793Z,5.00
2018-12-19T13:50:49.348Z,5.00
2018-12-19T13:53:22.919Z,5.00
2018-12-19T13:56:00.613Z,5.00
2018-12-19T13:58:40.577Z,4.90
2018-12-19T14:01:14.257Z,4.90
2018-12-19T14:03:48.112Z,4.90
2018-12-19T14:06:20.074Z,4.90
2018-12-19T14:08:53.584Z,4.90
2018-12-19T14:11:33.187Z,5.00
2018-12-19T14:14:13.214Z,5.00
2018-12-19T14:16:51.357Z,5.10
2018-12-19T14:19:25.563Z,5.10
2018-12-19T14:22:03.888Z,5.10
2018-12-19T14:24:38.241Z,5.10
2018-12-19T14:27:12.061Z,5.10
2018-12-19T14:29:52.356Z,5.00
2018-12-19T14:32:32.349Z,5.00
2018-12-19T14:35:05.950Z,4.90
2018-12-19T14:37:40.004Z,4.90
2018-12-19T14:40:13.752Z,4.90
2018-12-19T14:42:48.735Z,4.90
2018-12-19T14:45:23.179Z,4.90
2018-12-19T14:48:03.304Z,4.80
2018-12-19T14:50:36.912Z,4.80
2018-12-19T14:53:08.561Z,4.80
2018-12-19T14:55:43.453Z,4.80
2018-12-19T14:58:17.483Z,4.80
2018-12-19T15:00:51.801Z,4.80
2018-12-19T15:03:32.246Z,4.80
2018-12-19T15:06:08.326Z,4.70
2018-12-19T15:08:42.402Z,4.70
2018-12-19T15:11:16.164Z,4.60
2018-12-19T15:13:50.332Z,4.60
2018-12-19T15:16:24.884Z,4.50
2018-12-19T15:18:59.203Z,4.50
2018-12-19T15:21:31.177Z,4.50
2018-12-19T15:24:04.246Z,4.60
2018-12-19T15:26:43.842Z,4.50
2018-12-19T15:29:17.898Z,4.50
2018-12-19T15:31:51.169Z,4.50
2018-12-19T15:34:24.390Z,4.40
2018-12-19T15:37:04.105Z,4.40
2018-12-19T15:39:38.145Z,4.40
2018-12-19T15:42:18.021Z,4.40
2018-12-19T15:44:52.072Z,4.30
2018-12-19T15:47:23.373Z,4.30
2018-12-19T15:49:59.051Z,4.30
2018-12-19T15:52:33.172Z,4.30
2018-12-19T15:55:06.517Z,4.30
2018-12-19T15:57:39.780Z,4.30
2018-12-19T16:00:17.279Z,4.20
2018-12-19T16:02:54.548Z,4.20
2018-12-19T16:05:28.265Z,4.20
2018-12-19T16:08:07.885Z,4.10
2018-12-19T16:10:48.012Z,4.10
2018-12-19T16:13:21.769Z,4.10
2018-12-19T16:15:58.236Z,4.10
2018-12-19T16:18:38.258Z,4.10
2018-12-19T16:21:12.174Z,4.00
2018-12-19T16:23:50.453Z,4.10
2018-12-19T16:26:27.809Z,4.00
2018-12-19T16:29:01.742Z,4.00
2018-12-19T16:31:35.977Z,4.00
2018-12-19T16:34:09.589Z,4.10
2018-12-19T16:36:51.364Z,4.10
2018-12-19T16:39:24.805Z,4.10
2018-12-19T16:42:04.938Z,3.90
2018-12-19T16:44:38.653Z,3.90
2018-12-19T16:47:16.911Z,3.90
2018-12-19T16:49:57.154Z,3.90
2018-12-19T16:52:31.102Z,3.80
2018-12-19T16:55:05.533Z,3.90
2018-12-19T16:57:43.348Z,3.90
2018-12-19T17:00:23.155Z,3.90
2018-12-19T17:03:11.453Z,3.90
2018-12-19T17:05:44.988Z,3.90
2018-12-19T17:08:18.029Z,3.90
2018-12-19T17:10:57.485Z,3.90
2018-12-19T17:13:29.203Z,4.00
2018-12-19T17:16:02.609Z,4.00
2018-12-19T17:18:38.294Z,4.00
2018-12-19T17:21:18.289Z,4.00
2018-12-19T17:23:51.970Z,4.00
2018-12-19T17:26:25.362Z,4.10
2018-12-19T17:28:59.562Z,4.10
2018-12-19T17:31:39.161Z,4.10
2018-12-19T17:34:17.239Z,4.20
2018-12-19T17:36:49.153Z,4.20
2018-12-19T17:39:24.529Z,4.20
2018-12-19T17:42:02.593Z,4.20
2018-12-19T17:44:37.307Z,4.20
2018-12-19T17:47:13.385Z,4.20
2018-12-19T17:49:48.985Z,4.20
2018-12-19T17:52:27.170Z,4.20
2018-12-19T18:05:22.005Z,4.20
2018-12-19T18:07:57.283Z,4.20
2018-12-19T18:10:31.279Z,4.10
2018-12-19T18:13:06.252Z,4.10
2018-12-19T18:15:39.696Z,4.10
2018-12-19T18:18:17.187Z,4.10
2018-12-19T18:20:50.235Z,4.10
2018-12-19T18:23:23.548Z,4.00
2018-12-19T18:25:57.278Z,4.00
2018-12-19T18:28:31.182Z,3.90
2018-12-19T18:31:07.064Z,3.90
2018-12-19T18:33:47.150Z,3.90
2018-12-19T18:36:21.113Z,3.90
2018-12-19T18:38:56.580Z,3.80
2018-12-19T18:41:30.402Z,3.90
2018-12-19T18:44:05.963Z,3.90
2018-12-19T18:46:44.025Z,3.80
2018-12-19T18:49:22.196Z,3.80
2018-12-19T18:52:05.690Z,3.80
2018-12-19T18:54:41.332Z,3.70
2018-12-19T18:57:17.325Z,3.60
2018-12-19T19:00:00.755Z,3.70
2018-12-19T19:02:36.703Z,3.70
2018-12-19T19:05:08.311Z,3.70
2018-12-19T19:15:22.053Z,3.70
2018-12-19T19:17:55.650Z,3.70
2018-12-19T19:20:32.137Z,3.70
2018-12-19T19:23:06.053Z,3.70
2018-12-19T19:25:41.639Z,3.70
2018-12-19T19:28:17.609Z,3.70
2018-12-19T19:30:51.322Z,3.70
2018-12-19T19:33:31.725Z,3.70
2018-12-19T19:36:05.546Z,3.70
2018-12-19T19:38:40.878Z,3.70
2018-12-19T19:41:14.893Z,3.70
2018-12-19T19:43:48.820Z,3.70
2018-12-19T19:46:22.195Z,3.70
2018-12-19T19:48:55.297Z,3.70
2018-12-19T19:51:37.026Z,3.70
2018-12-19T19:54:17.931Z,3.70
2018-12-19T20:00:06.798Z,3.70
2018-12-19T20:02:40.190Z,3.70
2018-12-19T20:05:13.345Z,3.70
2018-12-19T20:07:55.349Z,3.60
2018-12-19T20:10:28.653Z,3.70
2018-12-19T20:13:10.373Z,3.70
2018-12-19T20:15:43.649Z,3.70
2018-12-19T20:18:19.384Z,3.70
2018-12-19T20:20:53.213Z,3.70
2018-12-19T20:23:27.033Z,3.70
2018-12-19T20:26:06.456Z,3.70
2018-12-19T20:28:43.497Z,3.80
2018-12-19T20:31:17.177Z,3.80
2018-12-19T20:33:50.413Z,3.80
2018-12-19T20:36:26.606Z,3.80
2018-12-19T20:39:00.590Z,3.80
2018-12-19T20:41:33.969Z,3.80
2018-12-19T20:44:07.092Z,3.80
2018-12-19T20:46:42.661Z,3.80
2018-12-19T20:49:16.104Z,3.70
2018-12-19T20:51:52.151Z,3.80
2018-12-19T20:54:25.970Z,3.80
2018-12-19T20:57:06.851Z,3.80
2018-12-19T20:59:40.596Z,3.80
2018-12-19T21:02:13.987Z,3.80
2018-12-19T21:04:53.362Z,3.90
2018-12-19T21:07:29.618Z,3.90
2018-12-19T21:10:02.891Z,3.90
2018-12-19T21:12:35.867Z,3.90
2018-12-19T21:18:25.806Z,3.90
2018-12-19T21:21:01.341Z,3.90
2018-12-19T21:23:35.095Z,3.90
2018-12-19T21:26:10.822Z,3.90
2018-12-19T21:28:44.606Z,3.90
2018-12-19T21:31:20.881Z,3.90
2018-12-19T21:33:56.614Z,3.90
2018-12-19T21:36:30.528Z,3.90
2018-12-19T21:39:07.598Z,3.90
2018-12-19T21:41:45.849Z,4.00
2018-12-19T21:44:27.902Z,3.90
2018-12-19T21:47:07.401Z,3.90
2018-12-19T21:49:41.281Z,3.90
2018-12-19T21:52:16.880Z,3.90
2018-12-19T21:54:50.875Z,3.90
2018-12-19T21:57:24.350Z,4.00
2018-12-19T21:59:58.461Z,3.90
2018-12-19T22:02:35.396Z,3.90
2018-12-19T22:05:11.116Z,3.90
2018-12-19T22:07:47.357Z,4.00
2018-12-19T22:10:24.523Z,4.00
2018-12-19T22:12:59.451Z,3.90
2018-12-19T22:15:41.087Z,3.90
2018-12-19T22:18:22.005Z,3.90
2018-12-19T22:20:57.762Z,3.90
2018-12-19T22:23:33.818Z,3.90
2018-12-19T22:26:09.869Z,3.90
2018-12-19T22:28:43.959Z,3.90
2018-12-19T22:31:19.550Z,3.90
2018-12-19T22:33:57.795Z,3.80
2018-12-19T22:36:35.971Z,3.80
2018-12-19T22:39:14.457Z,3.80
2018-12-19T22:41:54.622Z,3.80
2018-12-19T22:44:27.675Z,3.80
2018-12-19T22:47:01.192Z,3.80
2018-12-19T22:49:43.112Z,3.80
2018-12-19T22:52:14.662Z,3.80
2018-12-19T22:54:51.163Z,3.80
2018-12-19T23:00:41.730Z,3.80
2018-12-19T23:03:17.078Z,3.70
2018-12-19T23:05:51.075Z,3.70
2018-12-19T23:08:26.527Z,3.70
2018-12-19T23:11:00.573Z,3.70
2018-12-19T23:13:34.728Z,3.60
2018-12-19T23:16:12.320Z,3.60
2018-12-19T23:18:51.348Z,3.60
2018-12-19T23:21:30.170Z,3.60
2018-12-19T23:24:11.475Z,3.60
2018-12-19T23:26:47.062Z,3.70
2018-12-19T23:29:26.284Z,3.70
2018-12-19T23:31:59.954Z,3.80
2018-12-19T23:34:35.505Z,3.80
2018-12-19T23:37:11.685Z,3.80
2018-12-19T23:39:51.791Z,3.90
2018-12-19T23:42:27.879Z,3.80
2018-12-19T23:45:01.837Z,3.80
2018-12-19T23:47:37.036Z,3.80
2018-12-19T23:50:08.163Z,3.80
2018-12-19T23:52:41.362Z,3.90
2018-12-19T23:55:16.978Z,3.90
2018-12-19T23:57:50.510Z,3.90
